createdAt,value
2023-05-25T00:01:02.523Z,4.38
2023-05-25T00:03:33.110Z,4.65
2023-05-25T00:06:02.947Z,4.20
2023-05-25T00:08:30.046Z,4.68
2023-05-25T00:10:56.800Z,4.68
2023-05-25T00:13:23.545Z,5.45
2023-05-25T00:15:50.689Z,4.97
2023-05-25T00:18:18.531Z,4.40
2023-05-25T00:20:46.038Z,4.70
2023-05-25T00:23:12.732Z,4.70
2023-05-25T00:25:39.376Z,5.07
2023-05-25T00:28:06.460Z,5.18
2023-05-25T00:30:33.105Z,6.15
2023-05-25T00:33:01.621Z,4.93
2023-05-25T00:35:28.600Z,4.53
2023-05-25T00:37:55.501Z,5.30
2023-05-25T00:40:22.218Z,5.03
2023-05-25T00:42:49.032Z,5.45
2023-05-25T00:45:15.861Z,5.20
2023-05-25T00:47:44.873Z,5.72
2023-05-25T00:50:15.329Z,5.72
2023-05-25T00:52:42.124Z,4.97
2023-05-25T00:55:11.809Z,4.78
2023-05-25T00:57:41.555Z,5.55
2023-05-25T01:00:11.537Z,5.38
2023-05-25T01:02:46.117Z,5.07
2023-05-25T01:05:14.370Z,4.97
2023-05-25T01:07:44.369Z,5.22
2023-05-25T01:10:14.457Z,5.50
2023-05-25T01:12:43.494Z,4.57
2023-05-25T01:15:10.739Z,5.95
2023-05-25T01:17:38.297Z,5.07
2023-05-25T01:20:11.616Z,4.88
2023-05-25T01:23:01.808Z,4.82
2023-05-25T01:25:40.717Z,4.95
2023-05-25T01:28:11.360Z,5.90
2023-05-25T01:30:42.203Z,5.93
2023-05-25T01:33:10.995Z,5.65
2023-05-25T01:35:39.056Z,6.72
2023-05-25T01:38:05.961Z,5.47
2023-05-25T01:40:32.702Z,5.50
2023-05-25T01:42:59.371Z,5.95
2023-05-25T01:45:26.822Z,5.53
2023-05-25T01:48:30.559Z,5.93
2023-05-25T01:51:07.479Z,6.07
2023-05-25T01:53:42.906Z,5.93
2023-05-25T01:56:11.808Z,6.30
2023-05-25T01:58:47.051Z,5.15
2023-05-25T02:01:15.878Z,5.63
2023-05-25T02:03:43.215Z,5.65
2023-05-25T02:06:10.006Z,6.20
2023-05-25T02:08:36.734Z,6.47
2023-05-25T02:11:03.601Z,6.03
2023-05-25T02:13:30.362Z,5.80
2023-05-25T02:15:57.079Z,5.70
2023-05-25T02:18:23.803Z,6.00
2023-05-25T02:20:50.547Z,6.45
2023-05-25T02:23:19.032Z,5.32
2023-05-25T02:25:46.672Z,6.05
2023-05-25T02:28:14.737Z,5.53
2023-05-25T02:30:41.382Z,5.80
2023-05-25T02:33:08.088Z,5.72
2023-05-25T02:35:34.874Z,6.05
2023-05-25T02:38:01.882Z,5.50
2023-05-25T02:40:28.506Z,6.25
2023-05-25T02:42:55.172Z,5.93
2023-05-25T02:45:21.826Z,5.93
2023-05-25T02:47:48.457Z,5.90
2023-05-25T02:50:15.085Z,6.25
2023-05-25T02:52:41.774Z,6.65
2023-05-25T02:55:13.284Z,6.40
2023-05-25T02:57:40.027Z,5.05
2023-05-25T03:00:07.609Z,5.57
2023-05-25T03:02:35.082Z,6.20
2023-05-25T03:05:04.103Z,6.47
2023-05-25T03:07:31.778Z,6.72
2023-05-25T03:09:59.528Z,5.90
2023-05-25T03:12:26.315Z,7.53
2023-05-25T03:14:52.971Z,6.30
2023-05-25T03:17:19.755Z,5.95
2023-05-25T03:19:46.468Z,6.22
2023-05-25T03:22:13.148Z,6.85
2023-05-25T03:24:41.880Z,6.85
2023-05-25T03:27:09.034Z,6.25
2023-05-25T03:29:35.958Z,6.22
2023-05-25T03:32:02.831Z,6.85
2023-05-25T03:34:29.943Z,6.05
2023-05-25T03:36:56.677Z,6.78
2023-05-25T03:39:23.367Z,7.70
2023-05-25T03:41:51.187Z,6.80
2023-05-25T03:44:17.902Z,6.20
2023-05-25T03:46:44.689Z,7.10
2023-05-25T03:49:14.156Z,6.20
2023-05-25T03:51:41.571Z,5.90
2023-05-25T03:54:08.290Z,7.07
2023-05-25T03:56:35.171Z,6.10
2023-05-25T03:59:01.901Z,6.18
2023-05-25T04:01:30.244Z,7.45
2023-05-25T04:03:57.529Z,6.38
2023-05-25T04:06:25.721Z,7.03
2023-05-25T04:08:52.749Z,7.72
2023-05-25T04:11:19.970Z,6.80
2023-05-25T04:13:46.824Z,7.28
2023-05-25T04:16:13.943Z,8.38
2023-05-25T04:18:40.700Z,7.10
2023-05-25T04:21:07.328Z,7.03
2023-05-25T04:23:36.690Z,7.28
2023-05-25T04:26:10.340Z,6.93
2023-05-25T04:28:42.807Z,7.20
2023-05-25T04:31:09.574Z,7.88
2023-05-25T04:33:39.046Z,8.00
2023-05-25T04:36:05.977Z,7.82
2023-05-25T04:38:33.399Z,7.47
2023-05-25T04:41:02.051Z,7.63
2023-05-25T04:43:30.007Z,7.65
2023-05-25T04:45:57.994Z,7.97
2023-05-25T04:48:24.839Z,7.25
2023-05-25T04:50:53.084Z,7.88
2023-05-25T04:53:20.579Z,8.07
2023-05-25T04:55:47.532Z,7.18
2023-05-25T04:58:14.819Z,7.78
2023-05-25T05:00:42.043Z,7.68
2023-05-25T05:03:09.080Z,7.60
2023-05-25T05:05:37.091Z,7.15
2023-05-25T05:08:03.919Z,6.32
2023-05-25T05:10:30.980Z,6.35
2023-05-25T05:12:57.628Z,5.63
2023-05-25T05:15:24.404Z,5.82
2023-05-25T05:17:51.108Z,5.88
2023-05-25T05:20:17.872Z,5.78
2023-05-25T05:22:45.696Z,5.00
2023-05-25T05:25:12.420Z,5.07
2023-05-25T05:27:39.136Z,5.32
2023-05-25T05:30:06.502Z,5.43
2023-05-25T05:32:33.485Z,5.47
2023-05-25T05:35:00.744Z,5.30
2023-05-25T05:37:27.450Z,4.80
2023-05-25T05:39:54.064Z,4.70
2023-05-25T05:42:23.200Z,4.93
2023-05-25T05:44:49.859Z,4.45
2023-05-25T05:47:16.537Z,5.03
2023-05-25T05:49:43.141Z,5.32
2023-05-25T05:52:10.418Z,4.32
2023-05-25T05:54:37.099Z,4.55
2023-05-25T05:57:03.955Z,4.60
2023-05-25T05:59:30.713Z,5.22
2023-05-25T06:01:57.458Z,5.10
2023-05-25T06:04:26.118Z,4.47
2023-05-25T06:06:52.815Z,4.68
2023-05-25T06:09:19.565Z,4.25
2023-05-25T06:11:47.641Z,4.38
2023-05-25T06:14:14.234Z,4.80
2023-05-25T06:16:41.195Z,4.78
2023-05-25T06:19:07.854Z,5.13
2023-05-25T06:21:34.602Z,5.10
2023-05-25T06:24:01.359Z,4.22
2023-05-25T06:26:28.194Z,4.35
2023-05-25T06:28:54.883Z,4.07
2023-05-25T06:31:21.656Z,4.15
2023-05-25T06:33:48.333Z,4.10
2023-05-25T06:36:15.740Z,3.80
2023-05-25T06:38:42.641Z,4.15
2023-05-25T06:41:09.847Z,4.63
2023-05-25T06:43:36.555Z,4.55
2023-05-25T06:46:03.263Z,3.95
2023-05-25T06:48:29.940Z,4.60
2023-05-25T06:50:56.851Z,6.95
2023-05-25T06:53:23.837Z,3.78
2023-05-25T06:55:50.913Z,4.00
2023-05-25T06:58:17.566Z,3.78
2023-05-25T07:00:45.990Z,3.72
2023-05-25T07:03:13.422Z,3.67
2023-05-25T07:05:40.149Z,4.45
2023-05-25T07:08:06.848Z,3.92
2023-05-25T07:10:34.010Z,3.70
2023-05-25T07:13:00.631Z,4.40
2023-05-25T07:15:27.494Z,4.28
2023-05-25T07:17:57.177Z,3.65
2023-05-25T07:20:24.655Z,4.30
2023-05-25T07:22:51.450Z,3.65
2023-05-25T07:25:18.121Z,4.18
2023-05-25T07:27:48.921Z,3.67
2023-05-25T07:30:15.991Z,4.07
2023-05-25T07:32:42.861Z,4.32
2023-05-25T07:35:09.606Z,3.97
2023-05-25T07:37:36.340Z,3.92
2023-05-25T07:40:03.337Z,4.20
2023-05-25T07:42:34.323Z,3.60
2023-05-25T07:45:02.089Z,3.60
2023-05-25T07:47:29.067Z,3.42
2023-05-25T07:49:55.949Z,3.55
2023-05-25T07:52:22.598Z,4.28
2023-05-25T07:54:49.258Z,3.38
2023-05-25T07:57:16.233Z,3.70
2023-05-25T07:59:44.731Z,3.90
2023-05-25T08:02:11.941Z,3.33
2023-05-25T08:04:42.378Z,3.42
2023-05-25T08:07:12.567Z,3.28
2023-05-25T08:09:39.388Z,3.40
2023-05-25T08:12:24.591Z,2.83
2023-05-25T08:14:54.288Z,3.50
2023-05-25T08:17:21.552Z,3.65
2023-05-25T08:19:48.545Z,4.30
2023-05-25T08:22:15.433Z,3.75
2023-05-25T08:24:42.203Z,3.35
2023-05-25T08:27:08.842Z,3.22
2023-05-25T08:29:35.474Z,3.30
2023-05-25T08:32:02.255Z,3.58
2023-05-25T08:34:33.386Z,3.10
2023-05-25T08:37:00.505Z,3.10
2023-05-25T08:39:27.617Z,3.88
2023-05-25T08:41:54.315Z,3.65
2023-05-25T08:44:21.656Z,3.78
2023-05-25T08:46:51.572Z,3.95
2023-05-25T08:49:18.570Z,3.58
2023-05-25T08:51:53.585Z,3.67
2023-05-25T08:54:24.621Z,3.85
2023-05-25T08:56:53.094Z,3.40
2023-05-25T08:59:35.366Z,4.03
2023-05-25T09:02:06.636Z,3.53
2023-05-25T09:04:34.914Z,3.47
2023-05-25T09:07:10.439Z,3.60
2023-05-25T09:09:39.010Z,3.58
2023-05-25T09:12:06.704Z,3.42
2023-05-25T09:14:34.554Z,3.50
2023-05-25T09:17:01.660Z,4.90
2023-05-25T09:19:28.412Z,3.90
2023-05-25T09:22:03.092Z,3.83
2023-05-25T09:24:41.541Z,4.53
2023-05-25T09:27:11.695Z,3.38
2023-05-25T09:29:38.638Z,3.63
2023-05-25T09:32:06.908Z,2.95
2023-05-25T09:34:36.629Z,3.00
2023-05-25T09:37:13.989Z,3.42
2023-05-25T09:39:45.140Z,4.18
2023-05-25T09:42:12.319Z,3.50
2023-05-25T09:44:42.869Z,3.55
2023-05-25T09:47:10.354Z,6.03
2023-05-25T09:49:37.357Z,4.25
2023-05-25T09:52:04.386Z,4.55
2023-05-25T09:54:31.349Z,4.00
2023-05-25T09:56:58.092Z,3.85
2023-05-25T09:59:24.862Z,4.57
2023-05-25T10:01:54.831Z,4.05
2023-05-25T10:04:21.660Z,4.30
2023-05-25T10:06:52.161Z,4.30
2023-05-25T10:09:20.167Z,3.42
2023-05-25T10:11:48.206Z,4.13
2023-05-25T10:14:24.615Z,4.35
2023-05-25T10:16:55.616Z,3.60
2023-05-25T10:19:28.634Z,4.15
2023-05-25T10:22:05.533Z,3.67
2023-05-25T10:24:48.896Z,3.90
2023-05-25T10:27:26.965Z,3.80
2023-05-25T10:29:56.861Z,4.10
2023-05-25T10:32:25.165Z,5.45
2023-05-25T10:34:53.503Z,4.78
2023-05-25T10:37:20.526Z,3.90
2023-05-25T10:39:50.124Z,4.32
2023-05-25T10:42:18.812Z,4.65
2023-05-25T10:44:46.054Z,3.97
2023-05-25T10:47:13.318Z,4.05
2023-05-25T10:50:05.966Z,4.15
2023-05-25T10:52:33.283Z,4.65
2023-05-25T10:55:05.432Z,5.25
2023-05-25T10:57:32.729Z,4.40
2023-05-25T11:00:08.798Z,5.32
2023-05-25T11:02:50.491Z,4.82
2023-05-25T11:05:26.220Z,4.63
2023-05-25T11:07:56.881Z,4.60
2023-05-25T11:10:44.797Z,4.63
2023-05-25T11:13:39.812Z,4.63
2023-05-25T11:16:17.734Z,4.72
2023-05-25T11:18:53.117Z,4.35
2023-05-25T11:21:43.834Z,4.28
2023-05-25T11:24:15.750Z,4.10
2023-05-25T11:26:56.902Z,3.65
2023-05-25T11:29:25.550Z,3.70
2023-05-25T11:31:55.098Z,2.92
2023-05-25T11:34:25.985Z,3.72
2023-05-25T11:37:02.017Z,3.42
2023-05-25T11:39:33.994Z,3.63
2023-05-25T11:42:07.440Z,3.40
2023-05-25T11:44:36.838Z,3.13
2023-05-25T11:47:09.146Z,3.42
2023-05-25T11:49:42.115Z,3.15
2023-05-25T11:52:09.297Z,3.78
2023-05-25T11:54:36.494Z,3.40
2023-05-25T11:57:03.784Z,3.38
2023-05-25T11:59:32.421Z,3.33
2023-05-25T12:02:04.345Z,3.92
2023-05-25T12:04:35.153Z,3.47
2023-05-25T12:07:03.876Z,3.80
2023-05-25T12:09:30.645Z,3.60
2023-05-25T12:11:59.014Z,3.65
2023-05-25T12:14:25.831Z,3.60
2023-05-25T12:16:53.028Z,3.78
2023-05-25T12:19:21.211Z,3.65
2023-05-25T12:21:51.239Z,4.13
2023-05-25T12:24:19.159Z,3.47
2023-05-25T12:26:49.598Z,3.33
2023-05-25T12:29:16.771Z,3.38
2023-05-25T12:31:43.737Z,3.45
2023-05-25T12:34:18.197Z,3.08
2023-05-25T12:36:53.770Z,3.60
2023-05-25T12:39:29.517Z,3.40
2023-05-25T12:41:56.948Z,3.33
2023-05-25T12:44:31.547Z,3.85
2023-05-25T12:47:10.826Z,3.75
2023-05-25T12:49:38.609Z,3.58
2023-05-25T12:52:05.846Z,3.03
2023-05-25T12:54:36.901Z,3.13
2023-05-25T12:57:08.036Z,4.22
2023-05-25T12:59:38.342Z,3.90
2023-05-25T13:02:07.190Z,3.70
2023-05-25T13:04:35.603Z,3.45
2023-05-25T13:07:02.698Z,3.80
2023-05-25T13:09:30.307Z,3.70
2023-05-25T13:12:08.224Z,3.50
2023-05-25T13:14:34.959Z,3.55
2023-05-25T13:17:01.713Z,3.42
2023-05-25T13:19:28.479Z,4.55
2023-05-25T13:21:56.695Z,4.15
2023-05-25T13:24:23.512Z,3.80
2023-05-25T13:26:51.165Z,4.63
2023-05-25T13:29:18.098Z,3.95
2023-05-25T13:31:45.334Z,4.05
2023-05-25T13:34:12.239Z,3.97
2023-05-25T13:36:38.921Z,4.55
2023-05-25T13:39:05.593Z,3.70
2023-05-25T13:41:32.403Z,3.75
2023-05-25T13:43:59.116Z,4.35
2023-05-25T13:46:34.258Z,4.13
2023-05-25T13:49:02.772Z,4.55
2023-05-25T13:51:29.499Z,3.90
2023-05-25T13:53:59.358Z,3.60
2023-05-25T13:56:26.059Z,4.50
2023-05-25T13:58:52.691Z,4.88
2023-05-25T14:01:19.424Z,3.88
2023-05-25T14:03:46.522Z,3.60
2023-05-25T14:06:13.462Z,3.65
2023-05-25T14:08:40.261Z,5.05
2023-05-25T14:11:06.921Z,4.22
2023-05-25T14:13:34.382Z,3.83
2023-05-25T14:16:01.302Z,3.95
2023-05-25T14:18:28.034Z,4.65
2023-05-25T14:20:54.819Z,4.18
2023-05-25T14:23:21.469Z,3.88
2023-05-25T14:25:48.870Z,3.85
2023-05-25T14:28:16.162Z,4.55
2023-05-25T14:30:43.316Z,4.50
2023-05-25T14:33:14.337Z,4.35
2023-05-25T14:35:45.377Z,4.10
2023-05-25T14:38:12.334Z,3.92
2023-05-25T14:40:38.974Z,4.20
2023-05-25T14:43:05.815Z,3.70
2023-05-25T14:45:32.486Z,3.80
2023-05-25T14:48:11.913Z,3.40
2023-05-25T14:50:44.124Z,5.10
2023-05-25T14:53:11.000Z,4.03
2023-05-25T14:55:37.582Z,4.63
2023-05-25T14:58:04.241Z,3.80
2023-05-25T15:00:31.153Z,3.47
2023-05-25T15:02:58.264Z,3.83
2023-05-25T15:05:25.307Z,3.92
2023-05-25T15:07:51.934Z,3.85
2023-05-25T15:10:19.093Z,3.60
2023-05-25T15:12:45.702Z,4.07
2023-05-25T15:15:12.973Z,4.18
2023-05-25T15:17:39.756Z,3.00
2023-05-25T15:20:06.933Z,3.75
2023-05-25T15:22:33.646Z,3.35
2023-05-25T15:25:02.482Z,4.28
2023-05-25T15:27:29.485Z,3.35
2023-05-25T15:29:56.225Z,4.00
2023-05-25T15:32:22.940Z,3.50
2023-05-25T15:34:49.635Z,3.85
2023-05-25T15:37:16.261Z,3.63
2023-05-25T15:39:43.045Z,3.67
2023-05-25T15:42:09.764Z,4.00
2023-05-25T15:44:36.443Z,5.25
2023-05-25T15:47:03.058Z,3.80
2023-05-25T15:49:29.665Z,3.78
2023-05-25T15:51:56.310Z,3.70
2023-05-25T15:54:23.137Z,4.40
2023-05-25T15:56:49.720Z,3.70
2023-05-25T15:59:16.442Z,3.60
2023-05-25T16:01:43.179Z,3.45
2023-05-25T16:04:09.918Z,3.83
2023-05-25T16:06:36.995Z,4.05
2023-05-25T16:09:04.387Z,3.80
2023-05-25T16:11:33.108Z,4.35
2023-05-25T16:13:59.781Z,3.90
2023-05-25T16:16:26.509Z,4.25
2023-05-25T16:18:53.262Z,4.57
2023-05-25T16:21:19.936Z,4.15
2023-05-25T16:23:46.555Z,3.70
2023-05-25T16:26:13.228Z,4.32
2023-05-25T16:28:39.946Z,3.85
2023-05-25T16:31:07.470Z,3.50
2023-05-25T16:33:34.294Z,3.85
2023-05-25T16:36:01.889Z,3.80
2023-05-25T16:38:28.633Z,4.15
2023-05-25T16:40:55.335Z,3.97
2023-05-25T16:43:25.153Z,4.68
2023-05-25T16:45:52.107Z,4.50
2023-05-25T16:48:20.326Z,3.70
2023-05-25T16:50:48.290Z,4.28
2023-05-25T16:53:14.987Z,4.00
2023-05-25T16:55:41.585Z,4.22
2023-05-25T16:58:08.236Z,3.95
2023-05-25T17:00:34.858Z,4.22
2023-05-25T17:03:04.540Z,4.07
2023-05-25T17:05:34.163Z,4.13
2023-05-25T17:08:00.841Z,4.30
2023-05-25T17:10:27.406Z,3.97
2023-05-25T17:12:54.451Z,4.20
2023-05-25T17:15:21.328Z,4.47
2023-05-25T17:17:47.994Z,3.80
2023-05-25T17:20:14.877Z,4.40
2023-05-25T17:22:41.611Z,4.43
2023-05-25T17:25:11.716Z,4.40
2023-05-25T17:27:38.401Z,4.35
2023-05-25T17:30:05.599Z,4.93
2023-05-25T17:32:32.377Z,4.03
2023-05-25T17:34:59.049Z,4.40
2023-05-25T17:37:25.729Z,3.90
2023-05-25T17:39:52.429Z,3.85
2023-05-25T17:42:19.187Z,4.25
2023-05-25T17:44:46.024Z,4.47
2023-05-25T17:47:12.646Z,4.60
2023-05-25T17:49:39.256Z,4.63
2023-05-25T17:52:07.556Z,4.15
2023-05-25T17:54:35.613Z,4.10
2023-05-25T17:57:59.181Z,4.32
2023-05-25T18:00:26.169Z,4.45
2023-05-25T18:02:53.272Z,4.13
2023-05-25T18:05:20.102Z,3.80
2023-05-25T18:07:46.801Z,4.97
2023-05-25T18:10:14.744Z,4.50
2023-05-25T18:12:41.751Z,4.47
2023-05-25T18:15:09.132Z,4.25
2023-05-25T18:17:39.197Z,4.70
2023-05-25T18:20:10.001Z,4.40
2023-05-25T18:22:40.101Z,4.20
2023-05-25T18:25:07.376Z,4.20
2023-05-25T18:27:34.353Z,4.25
2023-05-25T18:30:04.115Z,4.25
2023-05-25T18:32:33.383Z,4.65
2023-05-25T18:35:00.131Z,4.63
2023-05-25T18:37:29.010Z,5.32
2023-05-25T18:39:56.120Z,4.28
2023-05-25T18:42:22.888Z,4.28
2023-05-25T18:44:52.128Z,4.25
2023-05-25T18:47:18.891Z,4.95
2023-05-25T18:49:52.203Z,5.60
2023-05-25T18:54:58.508Z,4.68
2023-05-25T18:57:37.105Z,5.55
2023-05-25T19:00:04.123Z,6.85
2023-05-25T19:02:34.447Z,6.68
2023-05-25T19:05:01.214Z,6.20
2023-05-25T19:07:31.575Z,6.68
2023-05-25T19:10:22.428Z,7.55
2023-05-25T19:13:01.692Z,5.90
2023-05-25T19:16:11.380Z,7.00
2023-05-25T19:18:46.457Z,6.68
2023-05-25T19:21:15.787Z,6.45
2023-05-25T19:23:42.573Z,7.20
2023-05-25T19:26:09.249Z,6.32
2023-05-25T19:28:36.276Z,6.90
2023-05-25T19:35:42.717Z,6.30
2023-05-25T19:38:09.486Z,6.47
2023-05-25T19:40:37.500Z,6.05
2023-05-25T19:43:04.406Z,8.30
2023-05-25T19:45:31.319Z,7.53
2023-05-25T19:47:58.105Z,7.57
2023-05-25T19:50:30.446Z,7.55
2023-05-25T19:52:58.683Z,8.15
2023-05-25T19:55:26.234Z,5.93
2023-05-25T19:57:53.467Z,7.82
2023-05-25T20:00:26.768Z,6.82
2023-05-25T20:02:54.254Z,8.70
2023-05-25T20:05:21.132Z,7.15
2023-05-25T20:07:52.352Z,7.20
2023-05-25T20:10:19.172Z,7.43
2023-05-25T20:12:46.074Z,7.03
2023-05-25T20:15:12.803Z,6.60
2023-05-25T20:17:39.507Z,7.85
2023-05-25T20:20:06.787Z,7.90
2023-05-25T20:22:34.154Z,6.18
2023-05-25T20:25:01.501Z,7.28
2023-05-25T20:27:28.767Z,8.52
2023-05-25T20:29:55.608Z,8.40
2023-05-25T20:32:22.621Z,6.97
2023-05-25T20:34:52.271Z,8.32
2023-05-25T20:37:24.157Z,6.85
2023-05-25T20:39:54.009Z,7.30
2023-05-25T20:42:20.788Z,6.30
2023-05-25T20:44:47.530Z,7.95
2023-05-25T20:47:17.535Z,7.68
2023-05-25T20:49:44.182Z,7.43
2023-05-25T20:52:11.017Z,7.75
2023-05-25T20:54:41.766Z,6.78
2023-05-25T20:57:11.598Z,6.50
2023-05-25T20:59:38.212Z,7.25
2023-05-25T21:02:05.047Z,6.85
2023-05-25T21:04:32.056Z,7.60
2023-05-25T21:06:58.868Z,7.72
2023-05-25T21:09:25.678Z,7.85
2023-05-25T21:11:56.034Z,8.02
2023-05-25T21:14:22.726Z,6.60
2023-05-25T21:16:50.143Z,6.50
2023-05-25T21:19:17.255Z,7.47
2023-05-25T21:21:44.208Z,7.07
2023-05-25T21:24:11.020Z,6.55
2023-05-25T21:26:40.307Z,7.85
2023-05-25T21:29:07.778Z,7.28
2023-05-25T21:31:34.947Z,6.85
2023-05-25T21:34:01.980Z,7.60
2023-05-25T21:36:28.778Z,6.93
2023-05-25T21:38:55.792Z,6.97
2023-05-25T21:41:23.407Z,7.50
2023-05-25T21:43:50.841Z,7.18
2023-05-25T21:46:17.539Z,6.22
2023-05-25T21:48:44.436Z,8.10
2023-05-25T21:51:11.267Z,6.93
2023-05-25T21:53:37.874Z,7.60
2023-05-25T21:56:04.664Z,7.88
2023-05-25T21:58:31.335Z,6.63
2023-05-25T22:01:08.255Z,7.15
2023-05-25T22:03:35.009Z,7.47
2023-05-25T22:06:02.059Z,6.05
2023-05-25T22:08:28.872Z,8.18
2023-05-25T22:10:55.808Z,6.75
2023-05-25T22:13:22.653Z,7.95
2023-05-25T22:15:49.316Z,7.70
2023-05-25T22:18:16.289Z,7.20
2023-05-25T22:20:43.368Z,6.75
2023-05-25T22:23:11.901Z,6.93
2023-05-25T22:25:38.608Z,7.70
2023-05-25T22:28:05.317Z,8.02
2023-05-25T22:30:32.008Z,8.00
2023-05-25T22:32:58.771Z,7.38
2023-05-25T22:35:25.672Z,7.63
2023-05-25T22:37:52.363Z,7.07
2023-05-25T22:40:18.936Z,6.97
2023-05-25T22:42:50.284Z,6.85
2023-05-25T22:45:18.339Z,7.40
2023-05-25T22:47:45.131Z,6.53
2023-05-25T22:50:12.532Z,8.38
2023-05-25T22:52:41.422Z,8.30
2023-05-25T22:55:09.039Z,7.05
2023-05-25T22:57:35.836Z,6.78
2023-05-25T23:00:04.068Z,8.02
2023-05-25T23:02:30.752Z,8.38
2023-05-25T23:05:01.972Z,7.10
2023-05-25T23:07:28.651Z,7.63
2023-05-25T23:09:57.293Z,8.23
2023-05-25T23:12:24.127Z,7.72
2023-05-25T23:14:51.869Z,6.82
2023-05-25T23:17:18.690Z,7.68
2023-05-25T23:19:45.350Z,7.57
2023-05-25T23:22:11.991Z,7.25
2023-05-25T23:24:38.775Z,7.38
2023-05-25T23:27:06.860Z,7.95
2023-05-25T23:29:33.432Z,6.72
2023-05-25T23:32:00.194Z,6.97
2023-05-25T23:34:29.818Z,7.45
2023-05-25T23:36:58.168Z,7.10
2023-05-25T23:39:25.144Z,8.23
2023-05-25T23:41:52.122Z,6.65
2023-05-25T23:44:18.733Z,6.35
2023-05-25T23:46:45.494Z,7.55
2023-05-25T23:49:12.134Z,7.18
2023-05-25T23:51:39.085Z,7.00
2023-05-25T23:54:06.881Z,6.95
2023-05-25T23:56:33.551Z,6.28
2023-05-25T23:59:00.373Z,7.18
